Time;durP1;ratioP1;P1;durP2;ratioP2;P2;SDS_P1;SDS_P2;PMS_P1;PMS_P2;Temp;Humidity;BMP_temperature;BMP_pressure;BME280_temperature;BME280_humidity;BME280_pressure;Samples;Min_cycle;Max_cycle;Signal;HPM_P1;HPM_P2
2023/05/01 00:00:22;;;;;;;0.70;0.70;;;;;;;;;;5059175;27;87554;-51
2023/05/01 00:02:50;;;;;;;0.47;0.47;;;;;;;;;;5058641;27;89082;-51
2023/05/01 00:05:18;;;;;;;1.83;0.80;;;;;;;;;;5059408;27;87736;-51
2023/05/01 00:07:47;;;;;;;0.50;0.50;;;;;;;;;;5059089;27;88666;-51
2023/05/01 00:10:18;;;;;;;1.60;0.53;;;;;;;;;;5060026;27;86702;-51
2023/05/01 00:12:46;;;;;;;0.57;0.57;;;;;;;;;;5058692;27;88218;-51
2023/05/01 00:15:14;;;;;;;0.63;0.50;;;;;;;;;;5059329;27;88837;-51
2023/05/01 00:17:43;;;;;;;0.43;0.43;;;;;;;;;;5059251;27;89692;-53
2023/05/01 00:20:11;;;;;;;0.67;0.67;;;;;;;;;;5058703;27;87246;-51
2023/05/01 00:22:40;;;;;;;0.43;0.43;;;;;;;;;;5058564;27;88291;-51
2023/05/01 00:25:09;;;;;;;0.30;0.30;;;;;;;;;;5058994;27;88845;-51
2023/05/01 00:27:39;;;;;;;1.20;0.50;;;;;;;;;;5058907;27;86999;-51
2023/05/01 00:30:08;;;;;;;0.43;0.43;;;;;;;;;;5059529;27;87227;-51
2023/05/01 00:32:37;;;;;;;0.73;0.70;;;;;;;;;;5059275;27;88588;-51
2023/05/01 00:35:06;;;;;;;0.57;0.57;;;;;;;;;;5058775;27;87838;-51
2023/05/01 00:37:34;;;;;;;1.07;0.60;;;;;;;;;;5058860;27;88372;-51
2023/05/01 00:40:04;;;;;;;2.53;0.67;;;;;;;;;;5059276;27;88327;-51
2023/05/01 00:42:35;;;;;;;3.20;0.50;;;;;;;;;;5058349;27;89299;-51
2023/05/01 00:45:05;;;;;;;1.23;0.57;;;;;;;;;;5059034;27;88928;-51
2023/05/01 00:47:33;;;;;;;2.20;0.60;;;;;;;;;;5058609;27;87435;-51
2023/05/01 00:50:02;;;;;;;0.93;0.73;;;;;;;;;;5059008;27;88649;-51
2023/05/01 00:52:30;;;;;;;2.03;0.70;;;;;;;;;;5058940;27;87834;-51
2023/05/01 00:54:58;;;;;;;0.67;0.67;;;;;;;;;;5055702;27;90444;-51
2023/05/01 00:57:27;;;;;;;0.40;0.40;;;;;;;;;;5057638;27;87107;-51
2023/05/01 00:59:55;;;;;;;0.50;0.50;;;;;;;;;;5058601;27;86354;-51
2023/05/01 01:02:26;;;;;;;1.07;0.43;;;;;;;;;;5058823;27;89239;-51
2023/05/01 01:04:54;;;;;;;1.07;0.60;;;;;;;;;;5058875;27;88588;-51
2023/05/01 01:07:24;;;;;;;1.17;0.63;;;;;;;;;;5057457;27;88044;-51
2023/05/01 01:09:56;;;;;;;0.77;0.77;;;;;;;;;;5058110;27;87271;-51
2023/05/01 01:12:25;;;;;;;2.10;0.70;;;;;;;;;;5058614;27;88735;-51
2023/05/01 01:14:56;;;;;;;2.93;0.50;;;;;;;;;;5057680;27;88830;-51
2023/05/01 01:17:29;;;;;;;0.50;0.50;;;;;;;;;;5058772;27;88368;-51
2023/05/01 01:20:07;;;;;;;0.50;0.50;;;;;;;;;;5058457;27;88122;-51
2023/05/01 01:22:36;;;;;;;0.83;0.67;;;;;;;;;;5057698;27;89101;-51
2023/05/01 01:25:08;;;;;;;0.67;0.60;;;;;;;;;;5058447;27;87975;-51
2023/05/01 01:27:40;;;;;;;5.60;0.70;;;;;;;;;;5057965;27;87673;-51
2023/05/01 01:30:17;;;;;;;1.40;0.67;;;;;;;;;;5058665;27;88645;-52
2023/05/01 01:32:55;;;;;;;0.50;0.50;;;;;;;;;;5058253;27;88599;-51
2023/05/01 01:35:26;;;;;;;0.40;0.40;;;;;;;;;;5058656;27;88624;-51
2023/05/01 01:37:56;;;;;;;1.50;0.70;;;;;;;;;;5058522;27;87118;-51
2023/05/01 01:40:26;;;;;;;0.50;0.50;;;;;;;;;;5058347;27;87627;-51
2023/05/01 01:42:56;;;;;;;0.50;0.50;;;;;;;;;;5057335;27;88082;-51
2023/05/01 01:45:24;;;;;;;0.60;0.60;;;;;;;;;;5057574;27;88810;-51
2023/05/01 01:47:52;;;;;;;1.77;0.80;;;;;;;;;;5058392;27;87255;-51
2023/05/01 01:50:21;;;;;;;0.80;0.70;;;;;;;;;;5058660;27;87895;-51
2023/05/01 01:52:51;;;;;;;0.73;0.73;;;;;;;;;;5057837;27;89141;-51
2023/05/01 01:55:21;;;;;;;0.97;0.53;;;;;;;;;;5057265;27;88561;-51
2023/05/01 01:57:49;;;;;;;0.80;0.80;;;;;;;;;;5057099;27;89830;-50
2023/05/01 02:00:18;;;;;;;0.50;0.50;;;;;;;;;;5057755;27;87247;-50
2023/05/01 02:02:46;;;;;;;4.13;0.73;;;;;;;;;;5057542;27;89115;-51
2023/05/01 02:05:15;;;;;;;1.10;0.77;;;;;;;;;;5057680;27;87769;-51
2023/05/01 02:07:44;;;;;;;0.97;0.70;;;;;;;;;;5057943;27;88822;-51
2023/05/01 02:10:14;;;;;;;0.77;0.77;;;;;;;;;;5057405;27;87216;-53
2023/05/01 02:12:42;;;;;;;0.73;0.57;;;;;;;;;;5057534;27;87870;-51
2023/05/01 02:15:10;;;;;;;0.87;0.60;;;;;;;;;;5058098;27;87787;-50
2023/05/01 02:17:39;;;;;;;0.50;0.50;;;;;;;;;;5057539;27;87977;-52
2023/05/01 02:20:08;;;;;;;2.47;0.60;;;;;;;;;;5057451;27;87378;-53
2023/05/01 02:22:36;;;;;;;0.90;0.60;;;;;;;;;;5056534;27;90286;-53
2023/05/01 02:25:05;;;;;;;0.60;0.50;;;;;;;;;;5057177;27;88877;-53
2023/05/01 02:27:35;;;;;;;1.03;0.90;;;;;;;;;;5057197;27;87130;-51
2023/05/01 02:30:05;;;;;;;0.40;0.40;;;;;;;;;;5057554;27;87061;-51
2023/05/01 02:32:34;;;;;;;0.70;0.70;;;;;;;;;;5057349;27;87524;-51
2023/05/01 02:35:02;;;;;;;0.70;0.40;;;;;;;;;;5056992;27;88842;-51
2023/05/01 02:37:31;;;;;;;0.60;0.60;;;;;;;;;;5057111;27;88184;-51
2023/05/01 02:39:59;;;;;;;1.00;0.67;;;;;;;;;;5058121;27;87863;-50
2023/05/01 02:42:27;;;;;;;1.63;0.70;;;;;;;;;;5056937;27;89119;-51
2023/05/01 02:44:57;;;;;;;0.50;0.50;;;;;;;;;;5056375;27;87468;-51
2023/05/01 02:47:26;;;;;;;0.60;0.60;;;;;;;;;;5056440;27;89589;-51
2023/05/01 02:49:54;;;;;;;0.97;0.50;;;;;;;;;;5056971;27;87130;-50
2023/05/01 02:52:23;;;;;;;0.33;0.33;;;;;;;;;;5056718;27;88457;-52
2023/05/01 02:54:51;;;;;;;0.30;0.30;;;;;;;;;;5056595;27;87892;-52
2023/05/01 02:57:20;;;;;;;2.40;0.80;;;;;;;;;;5057433;27;86994;-51
2023/05/01 02:59:48;;;;;;;0.70;0.70;;;;;;;;;;5056761;27;88868;-51
2023/05/01 03:02:18;;;;;;;0.40;0.40;;;;;;;;;;5057153;27;88089;-51
2023/05/01 03:04:47;;;;;;;0.97;0.90;;;;;;;;;;5057362;27;88914;-52
2023/05/01 03:07:15;;;;;;;0.50;0.50;;;;;;;;;;5055998;27;87507;-51
2023/05/01 03:09:43;;;;;;;0.60;0.60;;;;;;;;;;5056936;27;87254;-51
2023/05/01 03:12:11;;;;;;;2.93;0.50;;;;;;;;;;5055560;27;89721;-51
2023/05/01 03:14:40;;;;;;;2.43;1.27;;;;;;;;;;5056524;27;89891;-51
2023/05/01 03:17:08;;;;;;;0.93;0.70;;;;;;;;;;5056772;27;87138;-51
2023/05/01 03:19:38;;;;;;;0.60;0.60;;;;;;;;;;5056802;27;87097;-51
2023/05/01 03:22:06;;;;;;;0.63;0.43;;;;;;;;;;5055945;27;89158;-50
2023/05/01 03:24:34;;;;;;;2.53;0.73;;;;;;;;;;5056166;27;88879;-51
2023/05/01 03:27:03;;;;;;;0.60;0.60;;;;;;;;;;5056442;27;87424;-52
2023/05/01 03:29:32;;;;;;;0.60;0.50;;;;;;;;;;5056387;27;86378;-51
2023/05/01 03:32:01;;;;;;;0.80;0.67;;;;;;;;;;5055732;27;87363;-51
2023/05/01 03:34:29;;;;;;;1.53;1.00;;;;;;;;;;5056138;27;88887;-51
2023/05/01 03:36:59;;;;;;;0.67;0.50;;;;;;;;;;5055876;27;88299;-51
2023/05/01 03:39:27;;;;;;;0.40;0.40;;;;;;;;;;5055787;27;87157;-51
2023/05/01 03:41:56;;;;;;;2.20;0.53;;;;;;;;;;5055051;27;89631;-51
2023/05/01 03:44:24;;;;;;;0.87;0.60;;;;;;;;;;5055923;27;88999;-51
2023/05/01 03:46:53;;;;;;;0.40;0.40;;;;;;;;;;5056536;27;88424;-53
2023/05/01 03:49:21;;;;;;;0.50;0.50;;;;;;;;;;5056168;27;87056;-51
2023/05/01 03:51:50;;;;;;;0.50;0.50;;;;;;;;;;5055643;27;87863;-51
2023/05/01 03:54:19;;;;;;;1.30;0.47;;;;;;;;;;5055993;27;88782;-51
2023/05/01 03:56:48;;;;;;;1.70;0.80;;;;;;;;;;5058286;27;88989;-51
2023/05/01 03:59:16;;;;;;;0.60;0.60;;;;;;;;;;5059403;27;87060;-51
2023/05/01 04:01:45;;;;;;;0.83;0.70;;;;;;;;;;5059135;27;90176;-51
2023/05/01 04:04:13;;;;;;;1.50;0.73;;;;;;;;;;5059866;27;89034;-51
2023/05/01 04:06:41;;;;;;;0.70;0.70;;;;;;;;;;5057090;27;87067;-51
2023/05/01 04:09:10;;;;;;;0.43;0.40;;;;;;;;;;5057175;27;88876;-51
2023/05/01 04:11:40;;;;;;;0.70;0.57;;;;;;;;;;5059132;27;89105;-52
2023/05/01 04:14:08;;;;;;;0.47;0.43;;;;;;;;;;5057351;27;88423;-51
2023/05/01 04:16:37;;;;;;;0.37;0.37;;;;;;;;;;5058114;27;87201;-51
2023/05/01 04:19:05;;;;;;;1.37;0.70;;;;;;;;;;5058749;27;87994;-51
2023/05/01 04:21:33;;;;;;;0.50;0.50;;;;;;;;;;5058443;27;89160;-51
2023/05/01 04:24:02;;;;;;;0.97;0.70;;;;;;;;;;5059111;27;89006;-51
2023/05/01 04:26:30;;;;;;;0.60;0.60;;;;;;;;;;5058011;27;88133;-51
2023/05/01 04:29:00;;;;;;;0.43;0.43;;;;;;;;;;5058590;27;87083;-51
2023/05/01 04:31:28;;;;;;;1.10;0.70;;;;;;;;;;5059202;27;89145;-51
2023/05/01 04:33:57;;;;;;;0.50;0.50;;;;;;;;;;5058358;27;88963;-55
2023/05/01 04:36:25;;;;;;;0.40;0.40;;;;;;;;;;5058572;27;87137;-53
2023/05/01 04:38:54;;;;;;;1.13;0.60;;;;;;;;;;5058712;27;87576;-52
2023/05/01 04:41:22;;;;;;;1.43;0.50;;;;;;;;;;5059851;27;89039;-53
2023/05/01 04:43:50;;;;;;;1.03;0.73;;;;;;;;;;5058836;27;88054;-51
2023/05/01 04:46:20;;;;;;;0.43;0.43;;;;;;;;;;5058369;27;88650;-52
2023/05/01 04:48:49;;;;;;;1.80;0.63;;;;;;;;;;5058402;27;88080;-51
2023/05/01 04:51:18;;;;;;;0.40;0.40;;;;;;;;;;5057680;27;89048;-51
2023/05/01 04:53:46;;;;;;;0.97;0.67;;;;;;;;;;5058053;27;90907;-51
2023/05/01 04:56:15;;;;;;;0.40;0.40;;;;;;;;;;5058188;27;87071;-52
2023/05/01 04:58:43;;;;;;;0.43;0.43;;;;;;;;;;5058412;27;87145;-50
2023/05/01 05:01:12;;;;;;;1.40;0.53;;;;;;;;;;5058429;27;87969;-51
2023/05/01 05:03:41;;;;;;;1.90;0.60;;;;;;;;;;5058551;27;88545;-51
2023/05/01 05:06:10;;;;;;;4.43;0.60;;;;;;;;;;5058340;27;87112;-51
2023/05/01 05:08:38;;;;;;;3.83;0.80;;;;;;;;;;5058471;27;86373;-51
2023/05/01 05:11:07;;;;;;;3.50;0.70;;;;;;;;;;5058245;27;89257;-51
2023/05/01 05:13:35;;;;;;;2.03;0.77;;;;;;;;;;5058239;27;88989;-50
2023/05/01 05:16:04;;;;;;;1.63;0.60;;;;;;;;;;5057492;27;89667;-50
2023/05/01 05:18:33;;;;;;;2.37;1.20;;;;;;;;;;5058478;27;87144;-51
2023/05/01 05:21:05;;;;;;;1.33;0.73;;;;;;;;;;5058089;27;88834;-51
2023/05/01 05:23:33;;;;;;;1.60;0.70;;;;;;;;;;5057795;27;88943;-51
2023/05/01 05:26:01;;;;;;;1.73;0.70;;;;;;;;;;5058401;27;88737;-51
2023/05/01 05:28:30;;;;;;;0.70;0.40;;;;;;;;;;5062899;27;87562;-50
2023/05/01 05:30:58;;;;;;;0.60;0.60;;;;;;;;;;5061266;27;88151;-51
2023/05/01 05:33:27;;;;;;;0.50;0.50;;;;;;;;;;5058270;27;87914;-50
2023/05/01 05:35:56;;;;;;;2.33;1.00;;;;;;;;;;5058311;27;87023;-51
2023/05/01 05:38:26;;;;;;;0.67;0.67;;;;;;;;;;5058228;27;87205;-51
2023/05/01 05:40:54;;;;;;;1.17;0.60;;;;;;;;;;5056460;27;89733;-51
2023/05/01 05:43:22;;;;;;;0.70;0.53;;;;;;;;;;5057979;27;89974;-51
2023/05/01 05:45:57;;;;;;;1.53;0.77;;;;;;;;;;5057922;27;89035;-51
2023/05/01 05:48:25;;;;;;;2.10;0.60;;;;;;;;;;5057820;27;87081;-51
2023/05/01 05:50:54;;;;;;;0.57;0.57;;;;;;;;;;5059045;27;88077;-51
2023/05/01 05:53:23;;;;;;;0.83;0.60;;;;;;;;;;5057706;27;88877;-51
2023/05/01 05:55:54;;;;;;;0.40;0.40;;;;;;;;;;5057767;27;88426;-51
2023/05/01 05:58:23;;;;;;;0.77;0.77;;;;;;;;;;5058205;27;86771;-51
2023/05/01 06:00:54;;;;;;;0.50;0.40;;;;;;;;;;5057173;27;88539;-51
2023/05/01 06:03:22;;;;;;;1.87;0.70;;;;;;;;;;5056748;27;90500;-51
2023/05/01 06:05:51;;;;;;;0.33;0.33;;;;;;;;;;5056770;27;89478;-51
2023/05/01 06:08:21;;;;;;;3.47;0.43;;;;;;;;;;5056905;27;87104;-51
2023/05/01 06:10:49;;;;;;;3.53;0.60;;;;;;;;;;5057040;27;90181;-51
2023/05/01 06:13:19;;;;;;;1.33;0.67;;;;;;;;;;5056992;27;88930;-51
2023/05/01 06:15:47;;;;;;;0.70;0.70;;;;;;;;;;5057508;27;88945;-51
2023/05/01 06:18:16;;;;;;;0.33;0.33;;;;;;;;;;5056340;27;88118;-51
2023/05/01 06:20:46;;;;;;;3.20;0.70;;;;;;;;;;5057981;27;89006;-51
2023/05/01 06:23:15;;;;;;;0.50;0.43;;;;;;;;;;5057282;27;88935;-51
2023/05/01 06:25:43;;;;;;;0.60;0.60;;;;;;;;;;5057232;27;88428;-53
2023/05/01 06:28:11;;;;;;;0.60;0.60;;;;;;;;;;5057190;27;87118;-51
2023/05/01 06:30:41;;;;;;;0.50;0.50;;;;;;;;;;5055849;27;90144;-51
2023/05/01 06:33:09;;;;;;;0.77;0.50;;;;;;;;;;5056855;27;88468;-51
2023/05/01 06:35:39;;;;;;;0.40;0.40;;;;;;;;;;5057996;27;87555;-51
2023/05/01 06:38:07;;;;;;;0.40;0.40;;;;;;;;;;5057024;27;87119;-51
2023/05/01 06:40:36;;;;;;;0.53;0.40;;;;;;;;;;5056630;27;88330;-51
2023/05/01 06:43:04;;;;;;;0.67;0.60;;;;;;;;;;5056287;27;87724;-51
2023/05/01 06:45:32;;;;;;;0.47;0.47;;;;;;;;;;5057204;27;87111;-51
2023/05/01 06:48:02;;;;;;;0.60;0.60;;;;;;;;;;5057533;27;86992;-51
2023/05/01 06:50:30;;;;;;;0.57;0.57;;;;;;;;;;5056600;27;89072;-51
2023/05/01 06:52:59;;;;;;;1.43;0.77;;;;;;;;;;5056216;27;88789;-52
2023/05/01 06:55:30;;;;;;;0.67;0.40;;;;;;;;;;5056030;27;88088;-51
2023/05/01 06:57:59;;;;;;;1.73;0.47;;;;;;;;;;5056915;27;87089;-51
2023/05/01 07:00:34;;;;;;;0.30;0.30;;;;;;;;;;5057197;27;87864;-51
2023/05/01 07:03:04;;;;;;;0.57;0.57;;;;;;;;;;5055777;27;88865;-51
2023/05/01 07:05:32;;;;;;;0.60;0.60;;;;;;;;;;5056314;27;87123;-51
2023/05/01 07:08:01;;;;;;;0.57;0.57;;;;;;;;;;5056411;27;87123;-51
2023/05/01 07:10:29;;;;;;;0.33;0.33;;;;;;;;;;5057437;27;89234;-51
2023/05/01 07:12:58;;;;;;;2.47;0.90;;;;;;;;;;5056702;27;89638;-51
2023/05/01 07:15:26;;;;;;;1.30;0.80;;;;;;;;;;5057229;27;88534;-52
2023/05/01 07:17:55;;;;;;;0.67;0.60;;;;;;;;;;5054578;27;88757;-51
2023/05/01 07:20:25;;;;;;;0.97;0.70;;;;;;;;;;5052983;27;89465;-51
2023/05/01 07:22:53;;;;;;;0.80;0.70;;;;;;;;;;5055559;27;90016;-51
2023/05/01 07:25:21;;;;;;;1.13;0.60;;;;;;;;;;5056439;27;87064;-51
2023/05/01 07:27:50;;;;;;;0.30;0.30;;;;;;;;;;5056079;27;87387;-53
2023/05/01 07:30:19;;;;;;;1.50;0.63;;;;;;;;;;5059536;27;88621;-51
2023/05/01 07:32:47;;;;;;;0.80;0.80;;;;;;;;;;5059883;27;88431;-51
2023/05/01 07:35:16;;;;;;;0.83;0.50;;;;;;;;;;5059106;27;87331;-53
2023/05/01 07:37:45;;;;;;;1.07;0.40;;;;;;;;;;5059766;27;86441;-51
2023/05/01 07:40:14;;;;;;;0.60;0.60;;;;;;;;;;5057862;27;88409;-50
2023/05/01 07:42:42;;;;;;;0.50;0.43;;;;;;;;;;5059801;27;88808;-51
2023/05/01 07:45:11;;;;;;;1.07;0.60;;;;;;;;;;5058529;27;88111;-50
2023/05/01 07:47:39;;;;;;;0.70;0.70;;;;;;;;;;5060682;27;87093;-50
2023/05/01 07:50:10;;;;;;;0.60;0.60;;;;;;;;;;5063632;27;89170;-50
2023/05/01 07:52:38;;;;;;;1.50;0.50;;;;;;;;;;5064229;27;88555;-50
2023/05/01 07:55:09;;;;;;;0.83;0.83;;;;;;;;;;5064914;27;87563;-50
2023/05/01 07:57:37;;;;;;;0.53;0.50;;;;;;;;;;5064740;27;86991;-50
2023/05/01 08:00:06;;;;;;;1.37;0.70;;;;;;;;;;5065093;27;89116;-50
2023/05/01 08:02:34;;;;;;;0.40;0.40;;;;;;;;;;5064987;27;88772;-50
2023/05/01 08:05:03;;;;;;;0.40;0.40;;;;;;;;;;5065035;27;86695;-50
2023/05/01 08:07:31;;;;;;;0.83;0.63;;;;;;;;;;5063537;27;88579;-49
2023/05/01 08:10:00;;;;;;;0.30;0.30;;;;;;;;;;5062401;27;89013;-50
2023/05/01 08:12:30;;;;;;;0.93;0.80;;;;;;;;;;5063033;27;88613;-51
2023/05/01 08:14:59;;;;;;;0.70;0.57;;;;;;;;;;5056737;27;86983;-51
2023/05/01 08:17:27;;;;;;;0.50;0.50;;;;;;;;;;5063986;27;87943;-50
2023/05/01 08:19:56;;;;;;;0.63;0.63;;;;;;;;;;5063338;27;89311;-50
2023/05/01 08:22:25;;;;;;;0.80;0.43;;;;;;;;;;5063584;27;87787;-51
2023/05/01 08:24:53;;;;;;;0.40;0.40;;;;;;;;;;5064049;27;87020;-51
2023/05/01 08:27:21;;;;;;;0.40;0.40;;;;;;;;;;5064383;27;86393;-50
2023/05/01 08:29:51;;;;;;;2.83;0.30;;;;;;;;;;5063753;27;86986;-50
2023/05/01 08:32:20;;;;;;;0.67;0.67;;;;;;;;;;5063507;27;89037;-50
2023/05/01 08:34:48;;;;;;;0.43;0.43;;;;;;;;;;5062890;27;87986;-50
2023/05/01 08:37:17;;;;;;;1.07;0.73;;;;;;;;;;5063349;27;86775;-50
2023/05/01 08:39:45;;;;;;;0.70;0.60;;;;;;;;;;5063202;27;89088;-50
2023/05/01 08:42:14;;;;;;;0.30;0.30;;;;;;;;;;5063327;27;88850;-50
2023/05/01 08:44:42;;;;;;;0.50;0.50;;;;;;;;;;5064323;27;86748;-50
2023/05/01 08:47:13;;;;;;;1.20;0.57;;;;;;;;;;5063925;27;87072;-50
2023/05/01 08:49:41;;;;;;;0.57;0.57;;;;;;;;;;5063753;27;88051;-50
2023/05/01 08:52:11;;;;;;;0.33;0.33;;;;;;;;;;5064615;27;87683;-50
2023/05/01 08:54:40;;;;;;;0.40;0.40;;;;;;;;;;5063959;27;87046;-50
2023/05/01 08:57:08;;;;;;;1.87;0.77;;;;;;;;;;5063745;27;86911;-50
2023/05/01 08:59:38;;;;;;;0.97;0.53;;;;;;;;;;5062839;27;88999;-50
2023/05/01 09:02:06;;;;;;;1.53;0.53;;;;;;;;;;5063503;27;89957;-50
2023/05/01 09:04:37;;;;;;;0.73;0.70;;;;;;;;;;5063641;27;87076;-50
2023/05/01 09:07:06;;;;;;;0.90;0.60;;;;;;;;;;5063093;27;86953;-50
2023/05/01 09:09:34;;;;;;;0.67;0.67;;;;;;;;;;5062594;27;88116;-50
2023/05/01 09:12:05;;;;;;;0.30;0.30;;;;;;;;;;5063011;27;86914;-50
2023/05/01 09:14:33;;;;;;;1.80;0.50;;;;;;;;;;5064201;27;86981;-50
2023/05/01 09:17:01;;;;;;;2.57;0.50;;;;;;;;;;5064083;27;86308;-50
2023/05/01 09:19:30;;;;;;;0.80;0.60;;;;;;;;;;5062538;27;87031;-50
2023/05/01 09:21:59;;;;;;;0.60;0.50;;;;;;;;;;5063297;27;88986;-50
2023/05/01 09:24:28;;;;;;;0.50;0.50;;;;;;;;;;5062466;27;87968;-50
2023/05/01 09:26:57;;;;;;;0.50;0.50;;;;;;;;;;5063638;27;86994;-50
2023/05/01 09:29:38;;;;;;;0.80;0.40;;;;;;;;;;5062831;27;88108;-50
2023/05/01 09:32:13;;;;;;;1.20;0.80;;;;;;;;;;5063412;27;87883;-50
2023/05/01 09:34:43;;;;;;;1.10;0.60;;;;;;;;;;5062476;27;86848;-50
2023/05/01 09:37:14;;;;;;;0.90;0.50;;;;;;;;;;5062617;27;87057;-50
2023/05/01 09:39:42;;;;;;;0.80;0.80;;;;;;;;;;5063006;27;89106;-50
2023/05/01 09:42:11;;;;;;;3.20;0.63;;;;;;;;;;5063403;27;88759;-50
2023/05/01 09:44:44;;;;;;;0.93;0.70;;;;;;;;;;5074157;27;87036;-50
2023/05/01 09:47:13;;;;;;;0.80;0.50;;;;;;;;;;5083768;27;86992;-50
2023/05/01 09:49:48;;;;;;;0.70;0.70;;;;;;;;;;5082611;27;87896;-50
2023/05/01 09:52:17;;;;;;;1.13;0.80;;;;;;;;;;5082995;27;89823;-50
2023/05/01 09:54:46;;;;;;;1.30;0.60;;;;;;;;;;5083246;27;87396;-50
2023/05/01 09:57:14;;;;;;;0.73;0.73;;;;;;;;;;5082964;27;87040;-50
2023/05/01 09:59:42;;;;;;;1.07;0.80;;;;;;;;;;5082981;27;89133;-50
2023/05/01 10:02:18;;;;;;;0.73;0.73;;;;;;;;;;5083014;27;87750;-50
2023/05/01 10:04:47;;;;;;;0.77;0.60;;;;;;;;;;5083010;27;87613;-50
2023/05/01 10:07:15;;;;;;;0.83;0.70;;;;;;;;;;5083778;27;86221;-50
2023/05/01 10:09:45;;;;;;;0.83;0.50;;;;;;;;;;5083057;27;89124;-50
2023/05/01 10:12:13;;;;;;;1.90;0.70;;;;;;;;;;5082915;27;89036;-50
2023/05/01 10:14:50;;;;;;;2.30;0.70;;;;;;;;;;5082282;27;87882;-50
2023/05/01 10:17:19;;;;;;;0.60;0.60;;;;;;;;;;5082716;27;86851;-50
2023/05/01 10:19:48;;;;;;;1.13;0.60;;;;;;;;;;5083177;27;88053;-50
2023/05/01 10:22:17;;;;;;;1.27;0.60;;;;;;;;;;5080838;27;87780;-50
2023/05/01 10:24:48;;;;;;;0.53;0.50;;;;;;;;;;5062376;27;87144;-50
2023/05/01 10:27:16;;;;;;;0.40;0.40;;;;;;;;;;5071239;27;87188;-50
2023/05/01 10:29:44;;;;;;;0.57;0.57;;;;;;;;;;5081827;27;88237;-50
2023/05/01 10:32:13;;;;;;;1.53;0.90;;;;;;;;;;5064218;27;87896;-50
2023/05/01 10:34:43;;;;;;;0.50;0.50;;;;;;;;;;5061821;27;87157;-50
2023/05/01 10:37:12;;;;;;;0.77;0.70;;;;;;;;;;5061772;27;86830;-51
2023/05/01 10:39:41;;;;;;;0.97;0.70;;;;;;;;;;5061532;27;89174;-50
2023/05/01 10:42:13;;;;;;;0.43;0.43;;;;;;;;;;5077485;27;87718;-50
2023/05/01 10:44:41;;;;;;;0.50;0.50;;;;;;;;;;5041964;27;86965;-50
2023/05/01 10:47:30;;;;;;;1.33;1.00;;;;;;;;;;5041914;27;86686;-51
2023/05/01 10:50:05;;;;;;;1.47;0.70;;;;;;;;;;5042361;27;89125;-50
2023/05/01 10:52:49;;;;;;;1.13;0.70;;;;;;;;;;5063538;27;89027;-50
2023/05/01 10:55:33;;;;;;;0.67;0.60;;;;;;;;;;5082299;27;86839;-50
2023/05/01 10:58:02;;;;;;;1.37;0.87;;;;;;;;;;5082608;27;86638;-51
2023/05/01 11:00:32;;;;;;;1.27;1.17;;;;;;;;;;5074735;27;89301;-50
2023/05/01 11:03:19;;;;;;;1.30;1.20;;;;;;;;;;5061154;27;88936;-50
2023/05/01 11:06:06;;;;;;;1.30;1.13;;;;;;;;;;5063294;27;87926;-50
2023/05/01 11:08:35;;;;;;;1.10;0.83;;;;;;;;;;5065708;27;86972;-51
2023/05/01 11:11:22;;;;;;;2.43;1.30;;;;;;;;;;5064856;27;88222;-52
2023/05/01 11:13:59;;;;;;;0.80;0.80;;;;;;;;;;5065300;27;88803;-50
2023/05/01 11:16:42;;;;;;;1.13;1.03;;;;;;;;;;5064406;27;87119;-50
2023/05/01 11:19:11;;;;;;;0.90;0.90;;;;;;;;;;5061908;27;87113;-51
2023/05/01 11:21:40;;;;;;;0.60;0.60;;;;;;;;;;5065184;27;87870;-52
2023/05/01 11:24:09;;;;;;;3.23;0.97;;;;;;;;;;5065292;27;87677;-50
2023/05/01 11:26:38;;;;;;;1.87;1.03;;;;;;;;;;5066075;27;87052;-50
2023/05/01 11:29:09;;;;;;;1.33;1.17;;;;;;;;;;5065448;27;86925;-49
2023/05/01 11:31:37;;;;;;;1.27;1.10;;;;;;;;;;5064564;27;90215;-49
2023/05/01 11:34:05;;;;;;;5.87;1.30;;;;;;;;;;5065229;27;89668;-49
2023/05/01 11:36:47;;;;;;;2.50;1.10;;;;;;;;;;5063839;27;87003;-50
2023/05/01 11:39:16;;;;;;;0.90;0.80;;;;;;;;;;5044649;28;87473;-50
2023/05/01 11:41:44;;;;;;;0.83;0.80;;;;;;;;;;5058744;27;88254;-50
2023/05/01 11:44:16;;;;;;;1.20;0.83;;;;;;;;;;5062955;27;88846;-49
2023/05/01 11:46:44;;;;;;;0.80;0.80;;;;;;;;;;5064637;27;87062;-50
2023/05/01 11:49:13;;;;;;;2.90;1.10;;;;;;;;;;5055766;27;86412;-51
2023/05/01 11:51:41;;;;;;;2.67;1.10;;;;;;;;;;5057704;27;88161;-50
2023/05/01 11:54:11;;;;;;;3.13;1.63;;;;;;;;;;5077069;27;88299;-49
2023/05/01 11:56:42;;;;;;;3.67;1.93;;;;;;;;;;5063908;27;87763;-50
2023/05/01 11:59:11;;;;;;;2.43;1.27;;;;;;;;;;5064849;27;86959;-50
2023/05/01 12:01:43;;;;;;;4.40;1.63;;;;;;;;;;5063463;27;88130;-51
2023/05/01 12:04:11;;;;;;;3.60;0.67;;;;;;;;;;5064326;27;88890;-51
2023/05/01 12:06:43;;;;;;;2.70;1.17;;;;;;;;;;5064242;27;86890;-51
2023/05/01 12:09:11;;;;;;;5.27;1.23;;;;;;;;;;5064726;27;86861;-52
2023/05/01 12:11:40;;;;;;;2.80;1.10;;;;;;;;;;5063878;27;90364;-51
2023/05/01 12:14:08;;;;;;;3.67;1.30;;;;;;;;;;5063873;27;88753;-51
2023/05/01 12:16:38;;;;;;;1.60;1.40;;;;;;;;;;5056780;27;86996;-51
2023/05/01 12:19:08;;;;;;;2.70;1.23;;;;;;;;;;5067329;27;87025;-51
2023/05/01 12:21:36;;;;;;;1.73;1.07;;;;;;;;;;5063029;27;89221;-51
2023/05/01 12:24:09;;;;;;;2.93;1.77;;;;;;;;;;5063087;27;88673;-51
2023/05/01 12:26:37;;;;;;;0.90;0.80;;;;;;;;;;5064576;27;87044;-51
2023/05/01 12:29:06;;;;;;;2.50;1.23;;;;;;;;;;5064758;27;87067;-52
2023/05/01 12:31:34;;;;;;;2.00;0.80;;;;;;;;;;5063866;27;89121;-54
2023/05/01 12:34:05;;;;;;;4.53;1.37;;;;;;;;;;5064369;27;87927;-55
2023/05/01 12:36:36;;;;;;;5.27;2.17;;;;;;;;;;5063997;27;86741;-52
2023/05/01 12:39:04;;;;;;;9.93;3.17;;;;;;;;;;5063506;27;86263;-53
2023/05/01 12:41:39;;;;;;;10.67;4.60;;;;;;;;;;5062930;27;89160;-53
2023/05/01 12:44:18;;;;;;;34.87;14.83;;;;;;;;;;5044171;27;87023;-54
2023/05/01 12:46:47;;;;;;;60.80;29.07;;;;;;;;;;5062988;27;87930;-53
2023/05/01 12:49:18;;;;;;;88.50;45.70;;;;;;;;;;5062863;27;87056;-53
2023/05/01 12:51:48;;;;;;;89.33;47.43;;;;;;;;;;5063233;27;89068;-52
2023/05/01 12:54:24;;;;;;;105.27;45.20;;;;;;;;;;5063395;27;87008;-52
2023/05/01 12:56:53;;;;;;;75.17;37.73;;;;;;;;;;5062586;27;87137;-53
2023/05/01 12:59:22;;;;;;;68.10;35.97;;;;;;;;;;5063065;27;86971;-52
2023/05/01 13:01:57;;;;;;;61.67;34.93;;;;;;;;;;5063001;27;89143;-52
2023/05/01 13:04:26;;;;;;;78.10;33.03;;;;;;;;;;5063656;27;87873;-52
2023/05/01 13:06:56;;;;;;;65.80;30.50;;;;;;;;;;5062833;27;87042;-52
2023/05/01 13:09:26;;;;;;;57.87;30.93;;;;;;;;;;5062962;27;86938;-52
2023/05/01 13:11:57;;;;;;;63.20;29.53;;;;;;;;;;5062521;27;90173;-52
2023/05/01 13:14:26;;;;;;;58.97;27.17;;;;;;;;;;5062631;27;89870;-52
2023/05/01 13:16:54;;;;;;;52.30;26.33;;;;;;;;;;5061997;27;87094;-52
2023/05/01 13:19:27;;;;;;;38.03;21.80;;;;;;;;;;5062270;27;88337;-52
2023/05/01 13:21:57;;;;;;;36.67;21.10;;;;;;;;;;5061714;27;88684;-53
2023/05/01 13:24:26;;;;;;;37.60;20.57;;;;;;;;;;5060813;27;88985;-53
2023/05/01 13:26:59;;;;;;;36.10;19.83;;;;;;;;;;5062382;27;86985;-53
2023/05/01 13:29:31;;;;;;;43.23;18.20;;;;;;;;;;5059921;27;86368;-53
2023/05/01 13:32:00;;;;;;;34.27;14.63;;;;;;;;;;5061621;27;88983;-53
2023/05/01 13:34:29;;;;;;;27.30;14.53;;;;;;;;;;5061733;27;88099;-53
2023/05/01 13:36:59;;;;;;;25.37;13.40;;;;;;;;;;5059785;27;88263;-53
2023/05/01 13:39:28;;;;;;;23.50;12.90;;;;;;;;;;5061283;27;87048;-54
2023/05/01 13:41:56;;;;;;;22.53;11.40;;;;;;;;;;5062160;27;88352;-53
2023/05/01 13:44:24;;;;;;;21.93;11.90;;;;;;;;;;5061974;27;88925;-54
2023/05/01 13:46:53;;;;;;;17.70;10.10;;;;;;;;;;5058589;27;87032;-53
2023/05/01 13:49:22;;;;;;;18.23;11.83;;;;;;;;;;5062109;27;87119;-53
2023/05/01 13:51:51;;;;;;;18.90;11.93;;;;;;;;;;5061605;27;89264;-53
2023/05/01 13:54:21;;;;;;;23.87;10.80;;;;;;;;;;5061889;27;89021;-53
2023/05/01 13:56:49;;;;;;;15.97;10.20;;;;;;;;;;5057699;27;87029;-53
2023/05/01 13:59:17;;;;;;;17.73;10.37;;;;;;;;;;5062092;27;87054;-53
2023/05/01 14:01:46;;;;;;;20.63;8.87;;;;;;;;;;5061223;27;90085;-53
2023/05/01 14:04:16;;;;;;;12.10;8.33;;;;;;;;;;5062036;27;88674;-52
2023/05/01 14:06:45;;;;;;;12.20;7.43;;;;;;;;;;5061339;27;88110;-53
2023/05/01 14:09:15;;;;;;;14.83;6.33;;;;;;;;;;5062498;27;87106;-54
2023/05/01 14:11:46;;;;;;;8.67;4.67;;;;;;;;;;5061681;27;89055;-52
2023/05/01 14:14:15;;;;;;;4.93;4.20;;;;;;;;;;5056210;27;88834;-52
2023/05/01 14:16:47;;;;;;;6.57;3.47;;;;;;;;;;5062192;27;86978;-52
2023/05/01 14:19:16;;;;;;;3.73;2.60;;;;;;;;;;5062440;27;86255;-50
2023/05/01 14:21:45;;;;;;;4.30;2.87;;;;;;;;;;5061661;27;89056;-51
2023/05/01 14:24:14;;;;;;;6.70;3.30;;;;;;;;;;5060964;27;87730;-52
2023/05/01 14:26:43;;;;;;;2.20;2.00;;;;;;;;;;5061733;27;87881;-50
2023/05/01 14:29:17;;;;;;;2.73;1.97;;;;;;;;;;5062711;27;86817;-50
2023/05/01 14:31:46;;;;;;;6.97;2.13;;;;;;;;;;5061633;27;88104;-50
2023/05/01 14:34:14;;;;;;;2.87;2.00;;;;;;;;;;5062322;27;87600;-51
2023/05/01 14:36:43;;;;;;;2.17;1.83;;;;;;;;;;5071123;27;87097;-51
2023/05/01 14:39:11;;;;;;;3.93;1.43;;;;;;;;;;5070840;27;86973;-51
2023/05/01 14:41:40;;;;;;;6.80;2.27;;;;;;;;;;5061423;27;86872;-51
2023/05/01 14:44:09;;;;;;;2.33;1.90;;;;;;;;;;5061621;27;89039;-51
2023/05/01 14:46:41;;;;;;;2.87;1.60;;;;;;;;;;5062644;27;87015;-51
2023/05/01 14:49:09;;;;;;;3.23;1.93;;;;;;;;;;5069776;27;86973;-51
2023/05/01 14:51:38;;;;;;;2.53;1.77;;;;;;;;;;5061371;27;90096;-51
2023/05/01 14:54:06;;;;;;;1.93;1.70;;;;;;;;;;5060313;27;89945;-50